createdAt,value
2023-02-15T00:00:11.890Z,-1.41
2023-02-15T00:02:40.117Z,-1.37
2023-02-15T00:05:09.363Z,-1.36
2023-02-15T00:07:38.000Z,-1.35
2023-02-15T00:10:06.116Z,-1.34
2023-02-15T00:12:33.730Z,-1.32
2023-02-15T00:15:01.546Z,-1.31
2023-02-15T00:17:31.227Z,-1.31
2023-02-15T00:19:59.267Z,-1.30
2023-02-15T00:22:27.436Z,-1.26
2023-02-15T00:24:57.587Z,-1.27
2023-02-15T00:27:27.075Z,-1.28
2023-02-15T00:29:54.676Z,-1.27
2023-02-15T00:32:22.600Z,-1.27
2023-02-15T00:34:49.526Z,-1.29
2023-02-15T00:37:17.183Z,-1.30
2023-02-15T00:39:45.435Z,-1.29
2023-02-15T00:42:12.973Z,-1.31
2023-02-15T00:44:40.313Z,-1.34
2023-02-15T00:47:07.215Z,-1.35
2023-02-15T00:49:35.022Z,-1.37
2023-02-15T00:52:03.492Z,-1.37
2023-02-15T00:54:32.081Z,-1.35
2023-02-15T00:57:01.665Z,-1.35
2023-02-15T00:59:29.304Z,-1.33
2023-02-15T01:01:57.892Z,-1.35
2023-02-15T01:04:26.909Z,-1.38
2023-02-15T01:06:54.650Z,-1.38
2023-02-15T01:09:24.456Z,-1.38
2023-02-15T01:11:51.779Z,-1.33
2023-02-15T01:14:20.488Z,-1.29
2023-02-15T01:16:49.246Z,-1.28
2023-02-15T01:19:18.665Z,-1.28
2023-02-15T01:21:47.696Z,-1.26
2023-02-15T01:24:16.802Z,-1.28
2023-02-15T01:26:44.022Z,-1.23
2023-02-15T01:29:12.027Z,-1.25
2023-02-15T01:31:40.656Z,-1.26
2023-02-15T01:34:08.297Z,-1.26
2023-02-15T01:36:37.889Z,-1.27
2023-02-15T01:39:05.974Z,-1.26
2023-02-15T01:41:34.254Z,-1.25
2023-02-15T01:44:05.272Z,-1.23
2023-02-15T01:46:38.000Z,-1.18
2023-02-15T01:49:16.918Z,-1.20
2023-02-15T01:51:48.219Z,-1.18
2023-02-15T01:54:19.171Z,-1.17
2023-02-15T01:56:49.492Z,-1.16
2023-02-15T01:59:25.632Z,-1.15
2023-02-15T02:01:58.001Z,-1.14
2023-02-15T02:04:36.730Z,-1.11
2023-02-15T02:07:10.940Z,-1.10
2023-02-15T02:09:39.059Z,-1.08
2023-02-15T02:12:09.060Z,-1.08
2023-02-15T02:14:38.106Z,-1.08
2023-02-15T02:17:17.593Z,-1.06
2023-02-15T02:20:23.055Z,-1.03
2023-02-15T02:23:05.875Z,-1.03
2023-02-15T02:25:53.651Z,-1.02
2023-02-15T02:28:56.965Z,-1.02
2023-02-15T02:31:54.599Z,-1.02
2023-02-15T02:34:33.199Z,-1.03
2023-02-15T02:37:13.443Z,-1.01
2023-02-15T02:39:58.335Z,-1.02
2023-02-15T02:42:45.464Z,-1.02
2023-02-15T02:45:17.560Z,-1.01
2023-02-15T02:47:51.742Z,-1.01
2023-02-15T02:50:26.297Z,-0.99
2023-02-15T02:52:57.436Z,-0.97
2023-02-15T02:55:40.371Z,-0.94
2023-02-15T02:58:13.352Z,-0.93
2023-02-15T03:01:03.909Z,-0.89
2023-02-15T03:03:43.865Z,-0.85
2023-02-15T03:06:19.510Z,-0.88
2023-02-15T03:08:56.717Z,-0.87
2023-02-15T03:11:25.371Z,-0.88
2023-02-15T03:13:54.097Z,-0.85
2023-02-15T03:16:31.060Z,-0.86
2023-02-15T03:19:16.437Z,-0.84
2023-02-15T03:21:59.518Z,-0.80
2023-02-15T03:24:35.415Z,-0.81
2023-02-15T03:27:07.660Z,-0.79
2023-02-15T03:29:37.863Z,-0.80
2023-02-15T03:32:09.027Z,-0.78
2023-02-15T03:34:37.970Z,-0.80
2023-02-15T03:37:16.638Z,-0.79
2023-02-15T03:39:55.088Z,-0.77
2023-02-15T03:42:28.749Z,-0.78
2023-02-15T03:45:03.510Z,-0.77
2023-02-15T03:47:35.600Z,-0.77
2023-02-15T03:50:31.488Z,-0.76
2023-02-15T03:53:03.127Z,-0.75
2023-02-15T03:55:31.432Z,-0.78
2023-02-15T03:58:15.507Z,-0.76
2023-02-15T04:01:06.604Z,-0.76
2023-02-15T04:03:40.772Z,-0.75
2023-02-15T04:06:08.046Z,-0.74
2023-02-15T04:08:50.756Z,-0.76
2023-02-15T04:11:18.083Z,-0.76
2023-02-15T04:13:47.310Z,-0.78
2023-02-15T04:16:14.524Z,-0.78
2023-02-15T04:18:59.957Z,-0.76
2023-02-15T04:21:47.274Z,-0.75
2023-02-15T04:24:31.833Z,-0.75
2023-02-15T04:27:00.695Z,-0.73
2023-02-15T04:29:30.888Z,-0.69
2023-02-15T04:32:03.179Z,-0.67
2023-02-15T04:34:32.208Z,-0.67
2023-02-15T04:36:59.779Z,-0.69
2023-02-15T04:39:28.267Z,-0.69
2023-02-15T04:41:57.049Z,-0.67
2023-02-15T04:44:26.197Z,-0.71
2023-02-15T04:46:55.988Z,-0.71
2023-02-15T04:49:25.606Z,-0.65
2023-02-15T04:51:53.527Z,-0.64
2023-02-15T04:54:21.166Z,-0.64
2023-02-15T04:56:50.413Z,-0.67
2023-02-15T04:59:17.684Z,-0.64
2023-02-15T05:01:46.860Z,-0.63
2023-02-15T05:04:14.919Z,-0.61
2023-02-15T05:06:43.378Z,-0.63
2023-02-15T05:09:12.437Z,-0.62
2023-02-15T05:11:41.024Z,-0.62
2023-02-15T05:14:08.831Z,-0.63
2023-02-15T05:16:36.925Z,-0.63
2023-02-15T05:19:04.265Z,-0.61
2023-02-15T05:21:32.383Z,-0.62
2023-02-15T05:23:59.929Z,-0.61
2023-02-15T05:26:42.806Z,-0.60
2023-02-15T05:29:10.642Z,-0.62
2023-02-15T05:31:39.604Z,-0.62
2023-02-15T05:34:07.262Z,-0.61
2023-02-15T05:36:35.642Z,-0.59
2023-02-15T05:39:05.129Z,-0.56
2023-02-15T05:41:32.152Z,-0.55
2023-02-15T05:43:59.981Z,-0.53
2023-02-15T05:46:28.705Z,-0.53
2023-02-15T05:48:57.581Z,-0.55
2023-02-15T05:51:25.462Z,-0.56
2023-02-15T05:53:53.571Z,-0.62
2023-02-15T05:56:20.366Z,-0.67
2023-02-15T05:58:48.763Z,-0.59
2023-02-15T06:01:24.803Z,-0.59
2023-02-15T06:03:54.129Z,-0.62
2023-02-15T06:06:24.440Z,-0.59
2023-02-15T06:08:56.953Z,-0.58
2023-02-15T06:11:26.250Z,-0.55
2023-02-15T06:13:54.348Z,-0.55
2023-02-15T06:16:22.736Z,-0.53
2023-02-15T06:18:51.840Z,-0.55
2023-02-15T06:21:21.291Z,-0.57
2023-02-15T06:23:51.075Z,-0.64
2023-02-15T06:26:18.535Z,-0.60
2023-02-15T06:28:46.799Z,-0.58
2023-02-15T06:31:16.394Z,-0.57
2023-02-15T06:33:44.201Z,-0.57
2023-02-15T06:36:11.054Z,-0.55
2023-02-15T06:38:40.196Z,-0.57
2023-02-15T06:41:07.212Z,-0.57
2023-02-15T06:43:36.796Z,-0.58
2023-02-15T06:46:05.997Z,-0.59
2023-02-15T06:48:34.210Z,-0.58
2023-02-15T06:51:02.389Z,-0.58
2023-02-15T06:53:30.865Z,-0.56
2023-02-15T06:56:08.252Z,-0.57
2023-02-15T06:58:38.135Z,-0.59
2023-02-15T07:01:06.357Z,-0.58
2023-02-15T07:03:36.906Z,-0.58
2023-02-15T07:06:10.179Z,-0.61
2023-02-15T07:08:40.817Z,-0.57
2023-02-15T07:11:24.539Z,-0.61
2023-02-15T07:13:54.252Z,-0.62
2023-02-15T07:16:23.653Z,-0.59
2023-02-15T07:18:52.554Z,-0.58
2023-02-15T07:21:22.216Z,-0.71
2023-02-15T07:23:51.305Z,-0.65
2023-02-15T07:26:18.837Z,-0.61
2023-02-15T07:28:48.396Z,-0.58
2023-02-15T07:31:16.913Z,-0.56
2023-02-15T07:33:45.447Z,-0.54
2023-02-15T07:36:16.069Z,-0.57
2023-02-15T07:38:45.686Z,-0.56
2023-02-15T07:41:17.519Z,-0.55
2023-02-15T07:43:47.826Z,-0.59
2023-02-15T07:46:18.385Z,-0.56
2023-02-15T07:48:47.423Z,-0.52
2023-02-15T07:51:17.606Z,-0.53
2023-02-15T07:53:47.102Z,-0.52
2023-02-15T07:56:18.597Z,-0.55
2023-02-15T07:58:56.532Z,-0.57
2023-02-15T08:01:31.392Z,-0.51
2023-02-15T08:04:01.272Z,-0.58
2023-02-15T08:06:33.852Z,-0.65
2023-02-15T08:09:03.887Z,-0.70
2023-02-15T08:11:36.109Z,-0.69
2023-02-15T08:14:12.522Z,-0.64
2023-02-15T08:16:46.073Z,-0.63
2023-02-15T08:19:19.283Z,-0.67
2023-02-15T08:21:51.286Z,-0.61
2023-02-15T08:24:23.270Z,-0.66
2023-02-15T08:26:52.992Z,-0.60
2023-02-15T08:29:25.521Z,-0.63
2023-02-15T08:31:57.826Z,-0.63
2023-02-15T08:34:26.963Z,-0.65
2023-02-15T08:36:56.707Z,-0.61
2023-02-15T08:39:25.222Z,-0.60
2023-02-15T08:41:55.605Z,-0.58
2023-02-15T08:44:24.824Z,-0.60
2023-02-15T08:46:53.348Z,-0.56
2023-02-15T08:49:23.706Z,-0.59
2023-02-15T08:51:52.035Z,-0.62
2023-02-15T08:54:23.888Z,-0.64
2023-02-15T08:56:53.132Z,-0.65
2023-02-15T08:59:24.004Z,-0.59
2023-02-15T09:01:55.935Z,-0.57
2023-02-15T09:04:24.711Z,-0.57
2023-02-15T09:06:55.746Z,-0.51
2023-02-15T09:09:24.382Z,-0.52
2023-02-15T09:11:59.068Z,-0.50
2023-02-15T09:14:29.488Z,-0.48
2023-02-15T09:16:57.701Z,-0.46
2023-02-15T09:19:27.134Z,-0.47
2023-02-15T09:21:56.513Z,-0.46
2023-02-15T09:24:25.550Z,-0.46
2023-02-15T09:26:55.485Z,-0.42
2023-02-15T09:29:24.847Z,-0.44
2023-02-15T09:31:54.773Z,-0.45
2023-02-15T09:34:25.376Z,-0.42
2023-02-15T09:36:54.594Z,-0.42
2023-02-15T09:39:25.986Z,-0.48
2023-02-15T09:42:15.303Z,-0.47
2023-02-15T09:44:59.756Z,-0.45
2023-02-15T09:47:39.904Z,-0.40
2023-02-15T09:50:18.741Z,-0.37
2023-02-15T09:53:08.401Z,-0.40
2023-02-15T09:55:52.783Z,-0.37
2023-02-15T09:58:36.916Z,-0.40
2023-02-15T10:01:28.385Z,-0.44
2023-02-15T10:04:32.520Z,-0.43
2023-02-15T10:07:35.933Z,-0.41
2023-02-15T10:10:24.531Z,-0.38
2023-02-15T10:13:23.623Z,-0.36
2023-02-15T10:16:04.452Z,-0.30
2023-02-15T10:18:47.832Z,-0.29
2023-02-15T10:21:40.648Z,-0.30
2023-02-15T10:24:46.505Z,-0.31
2023-02-15T10:27:22.727Z,-0.26
2023-02-15T10:30:06.712Z,-0.23
2023-02-15T10:32:55.391Z,-0.24
2023-02-15T10:35:28.413Z,-0.25
2023-02-15T10:38:19.100Z,-0.20
2023-02-15T10:41:17.897Z,-0.20
2023-02-15T10:43:59.695Z,-0.22
2023-02-15T10:46:43.463Z,-0.18
2023-02-15T10:49:28.286Z,-0.18
2023-02-15T10:52:15.481Z,-0.19
2023-02-15T10:54:50.267Z,-0.15
2023-02-15T10:57:40.134Z,-0.03
2023-02-15T11:00:24.576Z,-0.13
2023-02-15T11:03:19.262Z,0.01
2023-02-15T11:06:06.326Z,-0.09
2023-02-15T11:08:39.498Z,-0.05
2023-02-15T11:11:16.617Z,-0.07
2023-02-15T11:13:51.354Z,0.01
2023-02-15T11:16:26.606Z,-0.01
2023-02-15T11:19:08.306Z,0.09
2023-02-15T11:21:42.295Z,-0.02
2023-02-15T11:24:16.882Z,-0.02
2023-02-15T11:26:51.949Z,-0.01
2023-02-15T11:29:29.672Z,-0.02
2023-02-15T11:32:03.596Z,-0.02
2023-02-15T11:34:46.304Z,0.04
2023-02-15T11:37:20.572Z,0.05
2023-02-15T11:39:52.801Z,0.22
2023-02-15T11:42:24.851Z,0.13
2023-02-15T11:45:06.442Z,0.03
2023-02-15T11:47:34.086Z,0.11
2023-02-15T11:50:03.706Z,0.23
2023-02-15T11:52:31.738Z,0.19
2023-02-15T11:54:59.968Z,0.20
2023-02-15T11:57:39.820Z,0.14
2023-02-15T12:00:18.970Z,0.14
2023-02-15T12:02:53.255Z,0.27
2023-02-15T12:05:26.319Z,0.15
2023-02-15T12:08:02.726Z,0.18
2023-02-15T12:10:36.978Z,0.03
2023-02-15T12:13:22.080Z,0.13
2023-02-15T12:15:54.710Z,0.01
2023-02-15T12:18:35.330Z,-0.07
2023-02-15T12:21:15.374Z,0.03
2023-02-15T12:23:50.548Z,0.00
2023-02-15T12:26:30.110Z,0.08
2023-02-15T12:29:03.819Z,0.09
2023-02-15T12:31:36.697Z,0.03
2023-02-15T12:34:15.453Z,0.03
2023-02-15T12:36:55.946Z,0.04
2023-02-15T12:39:27.798Z,0.04
2023-02-15T12:41:58.008Z,0.05
2023-02-15T12:44:30.924Z,0.03
2023-02-15T12:47:05.639Z,0.03
2023-02-15T12:49:35.605Z,0.07
2023-02-15T12:52:09.559Z,0.09
2023-02-15T12:54:43.581Z,0.08
2023-02-15T12:57:31.776Z,0.09
2023-02-15T13:00:02.719Z,0.06
2023-02-15T13:02:36.281Z,0.08
2023-02-15T13:05:27.913Z,0.10
2023-02-15T13:08:01.239Z,0.15
2023-02-15T13:10:34.306Z,0.22
2023-02-15T13:13:04.625Z,0.37
2023-02-15T13:15:38.415Z,0.30
2023-02-15T13:18:14.259Z,0.16
2023-02-15T13:20:46.758Z,0.20
2023-02-15T13:23:30.494Z,0.16
2023-02-15T13:26:04.728Z,0.18
2023-02-15T13:28:45.480Z,0.13
2023-02-15T13:31:20.217Z,0.11
2023-02-15T13:33:56.687Z,0.16
2023-02-15T13:36:43.461Z,0.21
2023-02-15T13:39:38.712Z,0.18
2023-02-15T13:42:23.044Z,0.28
2023-02-15T13:44:54.385Z,0.24
2023-02-15T13:47:28.840Z,0.33
2023-02-15T13:50:06.137Z,0.31
2023-02-15T13:52:44.967Z,0.29
2023-02-15T13:55:28.879Z,0.22
2023-02-15T13:57:57.905Z,0.32
2023-02-15T14:00:29.186Z,0.25
2023-02-15T14:03:19.855Z,0.24
2023-02-15T14:06:07.140Z,0.40
2023-02-15T14:08:51.864Z,0.33
2023-02-15T14:11:37.599Z,0.23
2023-02-15T14:14:22.068Z,0.22
2023-02-15T14:17:07.136Z,0.30
2023-02-15T14:19:38.017Z,0.25
2023-02-15T14:22:17.676Z,0.25
2023-02-15T14:25:03.505Z,0.26
2023-02-15T14:27:45.937Z,0.30
2023-02-15T14:30:21.590Z,0.27
2023-02-15T14:32:56.597Z,0.30
2023-02-15T14:35:29.659Z,0.30
2023-02-15T14:38:00.302Z,0.30
2023-02-15T14:40:53.549Z,0.31
2023-02-15T14:43:44.600Z,0.32
2023-02-15T14:46:27.088Z,0.42
2023-02-15T14:48:59.352Z,0.33
2023-02-15T14:51:44.086Z,0.33
2023-02-15T14:54:33.888Z,0.29
2023-02-15T14:57:03.290Z,0.29
2023-02-15T14:59:58.031Z,0.27
2023-02-15T15:02:32.186Z,0.38
2023-02-15T15:05:04.241Z,0.36
2023-02-15T15:07:52.258Z,0.33
2023-02-15T15:10:21.898Z,0.34
2023-02-15T15:12:50.725Z,0.31
2023-02-15T15:15:38.911Z,0.30
2023-02-15T15:18:12.008Z,0.28
2023-02-15T15:20:51.266Z,0.30
2023-02-15T15:23:21.661Z,0.29
2023-02-15T15:25:50.996Z,0.29
2023-02-15T15:28:34.750Z,0.30
2023-02-15T15:31:22.751Z,0.27
2023-02-15T15:34:21.766Z,0.28
2023-02-15T15:37:20.681Z,0.28
2023-02-15T15:40:04.585Z,0.29
2023-02-15T15:42:53.480Z,0.25
2023-02-15T15:45:41.338Z,0.26
2023-02-15T15:48:40.218Z,0.28
2023-02-15T15:51:13.771Z,0.28
2023-02-15T15:53:47.065Z,0.29
2023-02-15T15:56:19.849Z,0.27
2023-02-15T15:58:56.970Z,0.27
2023-02-15T16:01:29.985Z,0.28
2023-02-15T16:04:01.837Z,0.32
2023-02-15T16:06:39.721Z,0.30
2023-02-15T16:09:21.581Z,0.28
2023-02-15T16:11:55.068Z,0.31
2023-02-15T16:14:29.252Z,0.24
2023-02-15T16:17:02.755Z,0.23
2023-02-15T16:19:37.127Z,0.22
2023-02-15T16:22:08.719Z,0.25
2023-02-15T16:24:54.738Z,0.19
2023-02-15T16:27:37.249Z,0.19
2023-02-15T16:30:25.598Z,0.20
2023-02-15T16:32:57.449Z,0.20
2023-02-15T16:35:25.997Z,0.21
2023-02-15T16:37:55.380Z,0.21
2023-02-15T16:40:37.358Z,0.20
2023-02-15T16:43:09.895Z,0.19
2023-02-15T16:45:40.793Z,0.16
2023-02-15T16:48:16.511Z,0.17
2023-02-15T16:50:53.188Z,0.15
2023-02-15T16:53:27.108Z,0.22
2023-02-15T16:56:03.506Z,0.23
2023-02-15T16:58:44.715Z,0.32
2023-02-15T17:01:17.128Z,0.21
2023-02-15T17:03:50.197Z,0.14
2023-02-15T17:06:28.310Z,0.07
2023-02-15T17:09:06.180Z,0.04
2023-02-15T17:11:40.082Z,0.04
2023-02-15T17:14:10.467Z,-0.01
2023-02-15T17:16:55.624Z,-0.01
2023-02-15T17:19:28.117Z,0.16
2023-02-15T17:22:00.715Z,0.14
2023-02-15T17:24:40.932Z,0.06
2023-02-15T17:27:18.760Z,0.05
2023-02-15T17:29:53.955Z,0.06
2023-02-15T17:32:26.765Z,0.10
2023-02-15T17:35:01.557Z,0.11
2023-02-15T17:37:48.777Z,0.01
2023-02-15T17:40:30.524Z,0.05
2023-02-15T17:42:58.850Z,-0.04
2023-02-15T17:45:34.222Z,-0.11
2023-02-15T17:48:06.842Z,-0.13
2023-02-15T17:50:34.410Z,-0.15
2023-02-15T17:53:02.680Z,-0.24
2023-02-15T17:55:45.809Z,-0.17
2023-02-15T17:58:16.046Z,-0.23
2023-02-15T18:01:02.314Z,-0.18
2023-02-15T18:03:55.348Z,-0.02
2023-02-15T18:06:42.725Z,-0.07
2023-02-15T18:09:30.363Z,-0.11
2023-02-15T18:12:02.765Z,-0.22
2023-02-15T18:14:32.008Z,-0.24
2023-02-15T18:17:00.787Z,-0.18
2023-02-15T18:19:29.628Z,-0.24
2023-02-15T18:21:59.776Z,-0.29
2023-02-15T18:24:28.318Z,-0.27
2023-02-15T18:26:56.860Z,-0.21
2023-02-15T18:29:25.486Z,-0.14
2023-02-15T18:31:55.967Z,-0.19
2023-02-15T18:34:30.277Z,-0.21
2023-02-15T18:37:01.917Z,-0.34
2023-02-15T18:39:40.213Z,-0.40
2023-02-15T18:42:21.492Z,-0.27
2023-02-15T18:44:50.599Z,-0.27
2023-02-15T18:47:19.248Z,-0.32
2023-02-15T18:49:46.500Z,-0.21
2023-02-15T18:52:18.552Z,-0.18
2023-02-15T18:54:46.959Z,-0.20
2023-02-15T18:57:16.645Z,-0.37
2023-02-15T18:59:44.438Z,-0.41
2023-02-15T19:02:17.187Z,-0.43
2023-02-15T19:04:45.502Z,-0.49
2023-02-15T19:07:20.267Z,-0.49
2023-02-15T19:09:52.142Z,-0.54
2023-02-15T19:12:19.747Z,-0.49
2023-02-15T19:14:47.209Z,-0.53
2023-02-15T19:17:18.934Z,-0.55
2023-02-15T19:19:46.924Z,-0.44
2023-02-15T19:22:16.242Z,-0.53
2023-02-15T19:24:46.979Z,-0.51
2023-02-15T19:27:26.157Z,-0.46
2023-02-15T19:29:56.728Z,-0.52
2023-02-15T19:32:24.790Z,-0.55
2023-02-15T19:34:52.061Z,-0.58
2023-02-15T19:37:26.389Z,-0.65
2023-02-15T19:39:53.941Z,-0.65
2023-02-15T19:42:24.200Z,-0.64
2023-02-15T19:44:52.976Z,-0.58
2023-02-15T19:47:22.349Z,-0.57
2023-02-15T19:49:50.785Z,-0.53
2023-02-15T19:52:23.193Z,-0.58
2023-02-15T19:54:50.505Z,-0.63
2023-02-15T19:57:19.230Z,-0.65
2023-02-15T19:59:46.989Z,-0.69
2023-02-15T20:02:19.161Z,-0.65
2023-02-15T20:04:46.607Z,-0.62
2023-02-15T20:07:31.064Z,-0.58
2023-02-15T20:10:00.285Z,-0.66
2023-02-15T20:12:30.756Z,-0.69
2023-02-15T20:15:00.418Z,-0.74
2023-02-15T20:17:28.258Z,-0.74
2023-02-15T20:19:57.076Z,-0.77
2023-02-15T20:22:27.882Z,-0.75
2023-02-15T20:24:57.928Z,-0.70
2023-02-15T20:27:27.269Z,-0.73
2023-02-15T20:29:56.952Z,-0.74
2023-02-15T20:32:25.487Z,-0.79
2023-02-15T20:34:53.397Z,-0.77
2023-02-15T20:37:34.159Z,-0.71
2023-02-15T20:40:03.883Z,-0.72
2023-02-15T20:42:31.938Z,-0.82
2023-02-15T20:45:00.305Z,-0.83
2023-02-15T20:47:29.654Z,-0.87
2023-02-15T20:50:00.007Z,-0.86
2023-02-15T20:52:29.402Z,-0.75
2023-02-15T20:54:59.746Z,-0.75
2023-02-15T20:57:28.877Z,-0.81
2023-02-15T20:59:57.936Z,-0.79
2023-02-15T21:02:26.872Z,-0.69
2023-02-15T21:04:55.666Z,-0.73
2023-02-15T21:07:24.022Z,-0.76
2023-02-15T21:09:54.469Z,-0.83
2023-02-15T21:12:23.733Z,-0.80
2023-02-15T21:14:52.391Z,-0.79
2023-02-15T21:17:19.319Z,-0.81
2023-02-15T21:19:47.760Z,-0.86
2023-02-15T21:22:16.665Z,-0.90
2023-02-15T21:24:51.577Z,-0.92
2023-02-15T21:27:19.999Z,-0.96
2023-02-15T21:29:47.238Z,-0.90
2023-02-15T21:32:14.951Z,-0.99
2023-02-15T21:34:42.438Z,-0.94
2023-02-15T21:37:28.412Z,-1.03
2023-02-15T21:39:57.259Z,-0.99
2023-02-15T21:42:41.578Z,-0.98
2023-02-15T21:45:34.614Z,-0.99
2023-02-15T21:48:03.375Z,-1.04
2023-02-15T21:50:46.321Z,-0.95
2023-02-15T21:53:22.559Z,-1.03
2023-02-15T21:55:51.487Z,-1.04
2023-02-15T21:58:21.962Z,-1.09
2023-02-15T22:00:51.680Z,-1.06
2023-02-15T22:03:20.454Z,-0.98
2023-02-15T22:05:48.416Z,-1.05
2023-02-15T22:08:20.222Z,-1.04
2023-02-15T22:10:48.345Z,-1.07
2023-02-15T22:13:23.557Z,-1.08
2023-02-15T22:15:51.403Z,-1.16
2023-02-15T22:18:24.013Z,-1.22
2023-02-15T22:20:51.900Z,-1.16
2023-02-15T22:23:24.674Z,-1.13
2023-02-15T22:25:55.290Z,-1.12
2023-02-15T22:28:29.461Z,-1.11
2023-02-15T22:30:59.540Z,-1.22
2023-02-15T22:33:32.334Z,-1.25
2023-02-15T22:36:01.811Z,-1.21
2023-02-15T22:38:30.798Z,-1.25
2023-02-15T22:41:04.364Z,-1.28
2023-02-15T22:43:38.981Z,-1.36
2023-02-15T22:46:14.804Z,-1.34
2023-02-15T22:48:43.591Z,-1.32
2023-02-15T22:51:14.887Z,-1.28
2023-02-15T22:53:43.059Z,-1.29
2023-02-15T22:56:20.243Z,-1.35
2023-02-15T22:58:50.450Z,-1.37
2023-02-15T23:01:30.557Z,-1.38
2023-02-15T23:03:58.602Z,-1.36
2023-02-15T23:06:28.997Z,-1.36
2023-02-15T23:08:57.216Z,-1.41
2023-02-15T23:11:25.295Z,-1.38
2023-02-15T23:13:52.329Z,-1.41
2023-02-15T23:16:21.948Z,-1.43
2023-02-15T23:18:49.459Z,-1.42
2023-02-15T23:21:33.694Z,-1.39
2023-02-15T23:24:23.062Z,-1.32
2023-02-15T23:26:52.049Z,-1.36
2023-02-15T23:29:23.790Z,-1.33
2023-02-15T23:31:53.613Z,-1.40
2023-02-15T23:34:30.801Z,-1.38
2023-02-15T23:36:59.558Z,-1.51
2023-02-15T23:39:44.140Z,-1.40
2023-02-15T23:42:31.894Z,-1.47
2023-02-15T23:45:00.636Z,-1.38
2023-02-15T23:47:49.411Z,-1.37
2023-02-15T23:50:21.809Z,-1.42
2023-02-15T23:52:50.854Z,-1.42
2023-02-15T23:55:19.637Z,-1.42
2023-02-15T23:57:48.126Z,-1.47
